This is the latest recevied weather packets stored in our database for station/object KB4MOX. If no packets are shown the sender has not sent any weather packets the latest 10 day(s).
| Time | Temp. | Humidity | Pressure | Rain* | Wind** | Luminosity | Snow |
|---|---|---|---|---|---|---|---|
| 1787862728 | 30.56° C | 66% | 1014.3 hPa | 0 mm | - | 527 W/m² | - |
| 1787862423 | 30° C | 68% | 1014.1 hPa | 0 mm | - | 558 W/m² | - |
| 1787862119 | 30° C | 68% | 1014.2 hPa | 0 mm | - | 261 W/m² | - |
| 1787861818 | 30.56° C | 67% | 1014.2 hPa | 0 mm | - | 405 W/m² | - |
| 1787861516 | 30.56° C | 66% | 1014.4 hPa | 0 mm | - | 584 W/m² | - |
| 1787861212 | 30° C | 69% | 1014.2 hPa | 0 mm | - | 524 W/m² | - |
| 1787860910 | 30° C | 70% | 1014.5 hPa | 0 mm | - | 601 W/m² | - |
| 1787860605 | 30.56° C | 68% | 1014.9 hPa | 0 mm | - | 601 W/m² | - |
| 1787860300 | 30° C | 68% | 1014.9 hPa | 0 mm | - | 601 W/m² | - |
| 1787859995 | 30° C | 67% | 1014.9 hPa | 0 mm | - | 629 W/m² | - |
| 1787859691 | 30.56° C | 66% | 1015.1 hPa | 0 mm | - | 560 W/m² | - |
| 1787859391 | 30° C | 65% | 1015.1 hPa | 0 mm | - | 647 W/m² | - |
| 1787859086 | 29.44° C | 63% | 1014.8 hPa | 0 mm | - | 627 W/m² | - |
| 1787858782 | 30° C | 63% | 1014.9 hPa | 0 mm | - | 233 W/m² | - |
| 1787858478 | 30° C | 64% | 1015.1 hPa | 0 mm | - | 768 W/m² | - |
| 1787858177 | 29.44° C | 65% | 1015 hPa | 0 mm | - | 548 W/m² | - |
| 1787857873 | 29.44° C | 66% | 1015 hPa | 0 mm | - | 705 W/m² | - |
| 1787857569 | 28.89° C | 68% | 1015 hPa | 0 mm | - | 307 W/m² | - |
| 1787857263 | 28.89° C | 69% | 1015.3 hPa | 0 mm | - | 846 W/m² | - |
| 1787856962 | 28.33° C | 72% | 1015.3 hPa | 0 mm | - | 381 W/m² | - |
| 1787856656 | 27.78° C | 75% | 1015.3 hPa | 0 mm | - | 317 W/m² | - |
| 1787856351 | 27.78° C | 75% | 1015.5 hPa | 0 mm | - | 322 W/m² | - |
| 1787856047 | 27.22° C | 79% | 1015.6 hPa | 0 mm | - | 388 W/m² | - |
| 1787855746 | 26.67° C | 80% | 1015.5 hPa | 0 mm | - | 287 W/m² | - |
| 1787855441 | 26.67° C | 78% | 1015.4 hPa | 0 mm | - | 278 W/m² | - |
* Rain latest hour (hover to see other rain measurements)
** Current wind speed in m/s (hover to see current wind gust speed)